Time;durP1;ratioP1;P1;durP2;ratioP2;P2;SDS_P1;SDS_P2;PMS_P1;PMS_P2;Temp;Humidity;BMP_temperature;BMP_pressure;BME280_temperature;BME280_humidity;BME280_pressure;Samples;Min_cycle;Max_cycle;Signal;HPM_P1;HPM_P2
2022/08/06 00:00:56;;;;;;;3.80;3.60;;;;;;;25.81;59.63;99105.22;5109059;28;20202;-67
2022/08/06 00:03:23;;;;;;;3.50;3.30;;;;;;;25.89;59.49;99122.84;5110089;28;20203;-67
2022/08/06 00:05:50;;;;;;;4.60;4.07;;;;;;;25.82;60.00;99125.25;5110162;28;20666;-67
2022/08/06 00:08:17;;;;;;;4.10;3.80;;;;;;;25.78;60.05;99121.28;5110452;28;20735;-67
2022/08/06 00:10:44;;;;;;;4.50;4.30;;;;;;;25.74;60.88;99117.28;5109682;28;20660;-67
2022/08/06 00:13:11;;;;;;;4.83;4.43;;;;;;;25.70;60.97;99121.19;5107908;28;20194;-67
2022/08/06 00:15:40;;;;;;;4.10;3.90;;;;;;;25.57;60.82;99103.16;5109013;28;20202;-67
2022/08/06 00:18:06;;;;;;;4.37;4.17;;;;;;;25.61;61.40;99122.09;5108942;28;20578;-67
2022/08/06 00:20:34;;;;;;;3.73;3.53;;;;;;;25.57;61.19;99129.41;5108913;28;20244;-67
2022/08/06 00:23:01;;;;;;;3.90;3.70;;;;;;;25.56;61.68;99126.94;5108924;28;20203;-67
2022/08/06 00:25:29;;;;;;;3.90;3.57;;;;;;;25.49;61.75;99113.56;5108152;28;20579;-67
2022/08/06 00:27:56;;;;;;;3.67;3.47;;;;;;;25.49;61.88;99125.84;5109030;28;20194;-67
2022/08/06 00:30:23;;;;;;;3.97;3.70;;;;;;;25.45;62.33;99127.94;5110687;28;20191;-67
2022/08/06 00:32:52;;;;;;;3.93;3.67;;;;;;;25.39;61.72;99119.84;5110796;28;20198;-67
2022/08/06 00:35:19;;;;;;;3.70;3.40;;;;;;;25.38;62.61;99110.31;5110456;28;20209;-67
2022/08/06 00:37:45;;;;;;;4.33;3.93;;;;;;;25.33;62.32;99128.28;5110690;28;20658;-67
2022/08/06 00:40:15;;;;;;;4.63;4.43;;;;;;;25.30;62.52;99118.88;5109708;28;20597;-67
2022/08/06 00:42:42;;;;;;;3.90;3.67;;;;;;;25.25;62.65;99118.50;5110730;28;20195;-67
2022/08/06 00:45:09;;;;;;;4.27;4.07;;;;;;;25.21;62.95;99118.94;5111003;28;20202;-67
2022/08/06 00:47:36;;;;;;;4.30;4.10;;;;;;;25.18;63.10;99119.22;5109017;28;20234;-67
2022/08/06 00:50:05;;;;;;;4.20;3.93;;;;;;;25.12;63.09;99110.16;5110958;28;20580;-67
2022/08/06 00:52:31;;;;;;;3.80;3.60;;;;;;;25.11;63.34;99120.78;5110829;28;20233;-67
2022/08/06 00:54:58;;;;;;;4.00;3.70;;;;;;;25.07;62.85;99123.69;5113097;28;20195;-67
2022/08/06 00:57:25;;;;;;;5.13;4.70;;;;;;;24.97;63.65;99119.47;5113631;28;20206;-67
2022/08/06 00:59:52;;;;;;;4.30;4.10;;;;;;;24.88;63.36;99118.53;5111327;28;20222;-67
2022/08/06 01:02:19;;;;;;;5.13;4.67;;;;;;;24.74;63.50;99100.63;5113138;28;20195;-67
2022/08/06 01:04:46;;;;;;;4.43;4.03;;;;;;;24.81;63.92;99117.44;5113736;28;20210;-67
2022/08/06 01:07:14;;;;;;;3.27;3.17;;;;;;;24.79;64.50;99119.34;5113170;28;20226;-67
2022/08/06 01:09:41;;;;;;;4.97;4.57;;;;;;;24.79;64.58;99116.72;5113887;28;20194;-67
2022/08/06 01:12:08;;;;;;;4.20;4.00;;;;;;;24.81;64.66;99116.59;5114154;28;20586;-67
2022/08/06 01:14:35;;;;;;;4.37;3.97;;;;;;;24.78;64.74;99112.44;5114151;28;20206;-67
2022/08/06 01:17:06;;;;;;;4.37;3.93;;;;;;;24.77;64.73;99110.00;5113438;28;20199;-67
2022/08/06 01:19:49;;;;;;;4.30;4.10;;;;;;;24.74;65.08;99111.09;5114080;28;20586;-67
2022/08/06 01:22:39;;;;;;;7.23;4.40;;;;;;;24.75;65.46;99115.34;5114625;28;20211;-67
2022/08/06 01:25:42;;;;;;;4.13;3.93;;;;;;;24.75;65.01;99107.50;5113698;28;20206;-67
2022/08/06 01:28:15;;;;;;;4.00;3.80;;;;;;;24.72;64.50;99099.13;5112815;28;20696;-67
2022/08/06 01:30:48;;;;;;;4.17;3.87;;;;;;;24.73;64.84;99113.84;5113673;28;20195;-67
2022/08/06 01:33:21;;;;;;;4.27;3.97;;;;;;;24.66;64.63;99105.72;5113880;28;20202;-67
2022/08/06 01:35:53;;;;;;;4.97;4.57;;;;;;;24.66;64.86;99107.53;5111668;28;20251;-67
2022/08/06 01:38:26;;;;;;;5.00;4.40;;;;;;;24.65;65.31;99106.72;5113150;28;20195;-67
2022/08/06 01:40:55;;;;;;;4.50;4.30;;;;;;;24.63;65.32;99111.25;5113068;28;20202;-67
2022/08/06 01:43:25;;;;;;;4.33;4.07;;;;;;;24.62;65.60;99106.97;5113324;28;20194;-67
2022/08/06 01:45:55;;;;;;;4.53;4.33;;;;;;;24.61;65.87;99100.09;5111354;28;20194;-67
2022/08/06 01:48:25;;;;;;;3.87;3.67;;;;;;;24.59;65.42;99107.25;5113135;28;20248;-67
2022/08/06 01:50:55;;;;;;;4.10;3.90;;;;;;;24.56;65.45;99102.31;5113570;28;20655;-67
2022/08/06 01:53:35;;;;;;;3.90;3.70;;;;;;;24.49;65.56;99111.72;5111165;28;20654;-67
2022/08/06 01:56:05;;;;;;;4.27;3.97;;;;;;;24.39;66.16;99111.75;5111368;27;20697;-67
2022/08/06 01:58:42;;;;;;;3.53;3.43;;;;;;;24.23;66.71;99094.94;5111293;28;20207;-67
2022/08/06 02:01:13;;;;;;;4.57;4.37;;;;;;;24.23;67.12;99094.94;5110193;27;20194;-67
2022/08/06 02:03:46;;;;;;;4.47;4.27;;;;;;;24.27;67.69;99107.59;5111884;27;20190;-67
2022/08/06 02:06:15;;;;;;;4.20;4.00;;;;;;;24.24;68.15;99113.13;5110229;28;20245;-67
2022/08/06 02:08:44;;;;;;;4.23;4.03;;;;;;;24.22;68.87;99109.00;5111222;28;20256;-67
2022/08/06 02:11:12;;;;;;;4.00;3.80;;;;;;;24.19;69.54;99107.47;5111624;28;20202;-67
2022/08/06 02:13:42;;;;;;;3.90;3.70;;;;;;;24.17;69.77;99106.78;5113271;28;20194;-67
2022/08/06 02:16:12;;;;;;;4.03;3.73;;;;;;;24.15;70.11;99110.50;5111347;28;20590;-67
2022/08/06 02:18:42;;;;;;;4.00;3.70;;;;;;;24.12;70.34;99106.38;5112834;28;20670;-67
2022/08/06 02:21:13;;;;;;;4.93;4.53;;;;;;;24.09;70.45;99097.94;5112754;28;20690;-67
2022/08/06 02:23:41;;;;;;;5.60;4.80;;;;;;;23.97;71.27;99090.22;5111413;28;20198;-67
2022/08/06 02:26:10;;;;;;;4.53;4.13;;;;;;;24.04;72.08;99098.34;5110851;28;20199;-67
2022/08/06 02:28:39;;;;;;;6.83;4.97;;;;;;;23.98;72.53;99091.88;5112297;28;20194;-67
2022/08/06 02:31:08;;;;;;;4.37;4.07;;;;;;;24.05;72.46;99102.63;5112544;28;20586;-67
2022/08/06 02:33:35;;;;;;;5.10;4.10;;;;;;;23.86;72.78;99082.50;5112248;28;20198;-67
2022/08/06 02:36:11;;;;;;;4.30;4.03;;;;;;;24.02;72.21;99102.91;5110433;28;20209;-67
2022/08/06 02:38:46;;;;;;;4.60;4.37;;;;;;;24.02;72.01;99090.63;5112094;28;20194;-67
2022/08/06 02:41:19;;;;;;;4.20;3.90;;;;;;;24.07;71.65;99084.16;5111920;28;20210;-67
2022/08/06 02:43:53;;;;;;;4.30;4.10;;;;;;;24.08;71.64;99086.63;5111935;28;20198;-67
2022/08/06 02:46:26;;;;;;;5.47;5.10;;;;;;;24.11;71.87;99088.97;5109807;27;20224;-67
2022/08/06 02:48:57;;;;;;;3.60;3.50;;;;;;;24.08;72.14;99080.56;5111913;28;20210;-67
2022/08/06 02:51:31;;;;;;;4.50;4.20;;;;;;;24.14;71.98;99090.50;5111795;28;20255;-67
2022/08/06 02:54:03;;;;;;;4.03;3.73;;;;;;;24.15;72.71;99092.16;5111317;28;20198;-67
2022/08/06 02:56:32;;;;;;;4.60;4.30;;;;;;;24.15;72.41;99087.75;5110162;28;20670;-68
2022/08/06 02:59:02;;;;;;;4.57;4.27;;;;;;;24.13;72.96;99091.50;5111405;28;20206;-67
2022/08/06 03:01:34;;;;;;;4.77;4.47;;;;;;;24.10;72.91;99089.13;5111886;28;20198;-67
2022/08/06 03:04:02;;;;;;;12.77;4.93;;;;;;;24.13;73.77;99094.13;5110758;28;20195;-67
2022/08/06 03:06:33;;;;;;;9.57;4.10;;;;;;;24.03;74.44;99079.22;5108079;28;20649;-67
2022/08/06 03:09:02;;;;;;;10.13;4.60;;;;;;;24.08;74.95;99096.28;5111686;28;20191;-67
2022/08/06 03:11:33;;;;;;;4.47;4.17;;;;;;;24.07;75.33;99092.03;5111693;28;20215;-67
2022/08/06 03:14:02;;;;;;;4.57;4.37;;;;;;;24.08;75.45;99094.50;5111371;28;20221;-67
2022/08/06 03:16:36;;;;;;;4.93;4.67;;;;;;;24.08;75.70;99096.28;5110780;28;20206;-67
2022/08/06 03:19:04;;;;;;;4.70;4.50;;;;;;;23.99;76.14;99090.91;5111150;28;20203;-67
2022/08/06 03:21:34;;;;;;;4.03;3.83;;;;;;;24.01;76.28;99093.38;5111380;28;20674;-67
2022/08/06 03:24:02;;;;;;;4.00;3.80;;;;;;;23.93;76.48;99082.78;5111099;28;20203;-67
2022/08/06 03:26:30;;;;;;;4.33;4.13;;;;;;;23.99;76.24;99095.31;5110466;27;20201;-67
2022/08/06 03:28:59;;;;;;;4.33;4.13;;;;;;;23.95;76.30;99092.16;5110851;28;20570;-67
2022/08/06 03:31:28;;;;;;;4.70;4.40;;;;;;;23.94;76.35;99094.94;5111013;28;20210;-67
2022/08/06 03:33:57;;;;;;;5.20;4.57;;;;;;;23.93;76.66;99104.56;5111293;28;20195;-68
2022/08/06 03:36:25;;;;;;;3.77;3.57;;;;;;;23.95;76.48;99101.78;5110755;28;20202;-67
2022/08/06 03:39:02;;;;;;;4.17;3.97;;;;;;;23.96;76.07;99108.69;5110950;28;20574;-68
2022/08/06 03:41:31;;;;;;;5.00;4.80;;;;;;;23.95;75.80;99102.63;5111454;28;20654;-67
2022/08/06 03:43:58;;;;;;;5.30;4.90;;;;;;;23.96;75.39;99106.91;5110504;28;20214;-68
2022/08/06 03:46:28;;;;;;;5.40;5.00;;;;;;;23.97;74.90;99116.41;5106872;28;20199;-67
2022/08/06 03:49:00;;;;;;;4.70;4.50;;;;;;;23.88;75.02;99104.13;5110597;28;20682;-67
2022/08/06 03:51:29;;;;;;;4.80;4.60;;;;;;;23.88;75.46;99106.75;5110924;28;20578;-67
2022/08/06 03:53:58;;;;;;;5.50;5.13;;;;;;;23.95;75.45;99109.66;5110280;28;20290;-67
2022/08/06 03:56:28;;;;;;;4.70;4.40;;;;;;;23.98;75.13;99112.81;5109780;28;20632;-67
2022/08/06 03:59:00;;;;;;;5.60;5.30;;;;;;;23.90;75.20;99094.38;5110287;28;20558;-67
2022/08/06 04:01:28;;;;;;;5.50;5.30;;;;;;;24.01;74.67;99102.06;5111173;28;20610;-67
2022/08/06 04:03:58;;;;;;;5.80;5.23;;;;;;;23.99;75.19;99111.88;5110806;28;20658;-67
2022/08/06 04:06:27;;;;;;;13.20;6.20;;;;;;;23.96;75.13;99114.75;5109591;28;20720;-67
2022/08/06 04:08:54;;;;;;;5.53;5.17;;;;;;;23.94;74.91;99119.28;5110761;28;20668;-67
2022/08/06 04:11:23;;;;;;;5.40;5.00;;;;;;;23.88;74.61;99116.38;5110728;28;20194;-67
2022/08/06 04:13:50;;;;;;;6.93;5.80;;;;;;;23.88;74.91;99122.47;5111003;28;20654;-67
2022/08/06 04:16:18;;;;;;;5.67;5.37;;;;;;;23.93;74.68;99125.50;5110179;28;20218;-67
2022/08/06 04:18:46;;;;;;;5.90;5.60;;;;;;;23.97;75.11;99120.84;5106597;28;20641;-67
2022/08/06 04:21:19;;;;;;;5.77;5.50;;;;;;;24.04;74.72;99117.50;5110860;28;20571;-68
2022/08/06 04:23:46;;;;;;;6.10;5.60;;;;;;;24.09;74.66;99121.50;5110828;28;20666;-67
2022/08/06 04:26:17;;;;;;;5.50;5.20;;;;;;;24.14;74.66;99121.94;5110341;28;20202;-67
2022/08/06 04:28:46;;;;;;;5.33;5.13;;;;;;;24.25;75.00;99120.03;5107258;28;20247;-67
2022/08/06 04:31:14;;;;;;;5.43;5.13;;;;;;;24.37;74.67;99123.31;5114828;28;20221;-67
2022/08/06 04:33:42;;;;;;;5.50;5.00;;;;;;;24.49;73.89;99123.00;5110832;28;20699;-67
2022/08/06 04:36:10;;;;;;;6.03;4.97;;;;;;;24.62;74.06;99120.09;5114691;28;20570;-67
2022/08/06 04:38:39;;;;;;;5.27;5.03;;;;;;;24.58;72.04;99116.13;5114034;28;20229;-67
2022/08/06 04:41:07;;;;;;;5.00;4.70;;;;;;;24.48;72.84;99121.38;5114369;28;20214;-67
2022/08/06 04:43:34;;;;;;;5.43;5.07;;;;;;;24.44;73.57;99120.00;5114349;28;20190;-67
2022/08/06 04:46:02;;;;;;;5.43;5.13;;;;;;;24.31;73.63;99092.44;5114687;28;20563;-67
2022/08/06 04:48:30;;;;;;;5.63;5.43;;;;;;;24.48;73.72;99115.31;5113553;28;20206;-67
2022/08/06 04:50:57;;;;;;;4.50;4.30;;;;;;;24.52;73.19;99116.69;5112862;28;20206;-67
2022/08/06 04:53:24;;;;;;;5.30;4.87;;;;;;;24.55;74.44;99116.41;5113140;28;20267;-67
2022/08/06 04:55:52;;;;;;;5.03;4.73;;;;;;;24.59;74.20;99116.94;5113861;28;20195;-67
2022/08/06 04:58:19;;;;;;;5.37;5.07;;;;;;;24.62;73.77;99117.47;5112588;28;20199;-67
2022/08/06 05:00:48;;;;;;;4.87;4.67;;;;;;;24.60;73.62;99126.44;5113936;28;20210;-67
2022/08/06 05:03:15;;;;;;;4.90;4.60;;;;;;;24.67;74.25;99138.03;5114123;28;20213;-67
2022/08/06 05:05:47;;;;;;;5.23;4.83;;;;;;;24.78;74.84;99133.44;5111723;28;20204;-67
2022/08/06 05:08:15;;;;;;;5.33;5.03;;;;;;;24.96;74.59;99129.13;5112901;28;20555;-67
2022/08/06 05:10:48;;;;;;;5.37;4.90;;;;;;;25.25;72.93;99136.06;5113587;28;20195;-67
2022/08/06 05:13:21;;;;;;;5.87;5.43;;;;;;;25.53;73.16;99135.09;5112812;28;20199;-67
2022/08/06 05:15:54;;;;;;;5.00;4.80;;;;;;;25.80;73.34;99132.44;5113230;28;20260;-67
2022/08/06 05:18:25;;;;;;;5.03;4.80;;;;;;;26.13;72.11;99138.00;5112780;28;20202;-67
2022/08/06 05:20:56;;;;;;;5.53;5.03;;;;;;;26.26;69.59;99143.75;5113191;28;20242;-67
2022/08/06 05:23:28;;;;;;;5.47;4.73;;;;;;;26.35;69.53;99138.41;5112523;28;20220;-67
2022/08/06 05:25:55;;;;;;;5.33;5.10;;;;;;;26.43;68.44;99135.81;5113414;28;20198;-67
2022/08/06 05:28:23;;;;;;;5.87;5.67;;;;;;;26.63;69.26;99136.44;5112962;28;20199;-67
2022/08/06 05:30:52;;;;;;;5.17;4.77;;;;;;;26.88;70.04;99127.75;5113239;28;20195;-67
2022/08/06 05:33:30;;;;;;;4.90;4.50;;;;;;;27.01;67.91;99130.78;5111399;28;20219;-67
2022/08/06 05:35:58;;;;;;;4.40;4.17;;;;;;;27.25;69.61;99134.53;5113098;28;20205;-67
2022/08/06 05:38:26;;;;;;;4.20;4.00;;;;;;;27.51;67.69;99132.69;5112911;28;20201;-67
2022/08/06 05:40:53;;;;;;;5.47;5.07;;;;;;;27.76;63.81;99136.19;5112479;28;20214;-67
2022/08/06 05:43:20;;;;;;;5.20;4.80;;;;;;;27.94;64.58;99140.38;5113630;28;20256;-67
2022/08/06 05:45:52;;;;;;;5.20;4.80;;;;;;;28.16;64.94;99146.84;5112402;27;20205;-67
2022/08/06 05:48:21;;;;;;;4.73;4.43;;;;;;;28.47;64.44;99146.97;5111376;28;20203;-67
2022/08/06 05:50:51;;;;;;;5.30;4.80;;;;;;;28.70;62.36;99132.16;5108683;27;20211;-67
2022/08/06 05:53:24;;;;;;;4.47;4.13;;;;;;;29.03;60.43;99141.66;5110185;28;20199;-67
2022/08/06 05:55:55;;;;;;;4.40;4.10;;;;;;;29.26;59.96;99133.00;5111439;28;20195;-67
2022/08/06 05:58:29;;;;;;;4.35;3.60;;;;;;;29.50;57.27;99135.56;5111808;28;20202;-67
2022/08/06 06:01:02;;;;;;;4.03;3.87;;;;;;;29.66;57.15;99135.47;5110868;28;20223;-67
2022/08/06 06:03:29;;;;;;;4.17;3.77;;;;;;;29.72;55.12;99129.50;5112050;28;20199;-67
2022/08/06 06:05:58;;;;;;;3.63;3.47;;;;;;;29.73;57.93;99109.16;5109786;28;20206;-67
2022/08/06 06:08:26;;;;;;;3.70;3.60;;;;;;;30.01;57.00;99134.94;5110200;28;20206;-67
2022/08/06 06:10:54;;;;;;;3.17;3.08;;;;;;;30.19;55.73;99138.09;5112016;28;20709;-67
2022/08/06 06:13:23;;;;;;;3.50;3.30;;;;;;;30.41;55.63;99135.63;5110865;28;20237;-67
2022/08/06 06:15:54;;;;;;;3.97;3.78;;;;;;;30.47;54.93;99134.94;5112207;28;20312;-67
2022/08/06 06:18:39;;;;;;;3.35;3.25;;;;;;;30.64;53.94;99133.75;5112361;28;20206;-67
2022/08/06 06:21:24;;;;;;;3.58;3.38;;;;;;;30.83;50.87;99132.41;5109991;28;20234;-67
2022/08/06 06:23:57;;;;;;;3.83;3.53;;;;;;;31.02;50.71;99130.06;5111966;28;20194;-69
2022/08/06 06:26:34;;;;;;;5.18;4.70;;;;;;;31.11;52.65;99129.00;5104035;28;20591;-67
2022/08/06 06:29:17;;;;;;;3.53;3.33;;;;;;;31.40;51.50;99132.59;5110627;28;20203;-67
2022/08/06 06:31:57;;;;;;;4.32;3.95;;;;;;;31.50;51.37;99122.56;5103574;28;20649;-67
2022/08/06 06:34:35;;;;;;;3.85;3.65;;;;;;;31.79;49.95;99127.78;5105719;28;20210;-67
2022/08/06 06:37:07;;;;;;;4.22;4.03;;;;;;;32.08;49.04;99127.69;5106902;28;20217;-67
2022/08/06 06:39:41;;;;;;;3.63;3.53;;;;;;;32.31;50.65;99131.97;5110842;28;20195;-67
2022/08/06 06:42:12;;;;;;;4.60;4.03;;;;;;;32.57;49.93;99116.28;5107214;28;20257;-67
2022/08/06 06:44:44;;;;;;;4.25;3.90;;;;;;;32.73;46.93;99116.78;5108919;28;20203;-67
2022/08/06 06:47:17;;;;;;;4.55;3.55;;;;;;;32.89;46.16;99110.38;5110017;28;20551;-67
2022/08/06 06:49:50;;;;;;;8.02;4.03;;;;;;;33.09;47.78;99111.28;5110512;28;20206;-66
2022/08/06 06:52:22;;;;;;;4.53;4.13;;;;;;;33.24;45.17;99114.66;5109958;28;20199;-66
2022/08/06 06:54:54;;;;;;;3.72;3.60;;;;;;;33.45;46.31;99112.88;5106739;28;20195;-66
2022/08/06 06:57:30;;;;;;;4.13;3.92;;;;;;;33.71;43.98;99115.63;5106829;28;20210;-66
2022/08/06 07:00:00;;;;;;;4.35;4.15;;;;;;;33.93;47.26;99109.13;5109477;28;20259;-66
2022/08/06 07:02:31;;;;;;;4.25;3.92;;;;;;;34.17;45.69;99108.59;5110765;28;20225;-66
2022/08/06 07:05:02;;;;;;;3.85;3.63;;;;;;;34.32;42.88;99112.84;5106614;28;20203;-66
2022/08/06 07:07:31;;;;;;;3.83;3.53;;;;;;;34.36;46.25;99106.94;5109539;28;20245;-67
2022/08/06 07:10:00;;;;;;;11.63;4.22;;;;;;;34.45;44.80;99103.03;5110556;28;20259;-67
2022/08/06 07:12:30;;;;;;;4.32;4.13;;;;;;;34.51;43.93;99104.88;5109556;28;20203;-65
2022/08/06 07:14:59;;;;;;;4.47;4.18;;;;;;;34.56;42.08;99096.25;5107595;28;20459;-70
2022/08/06 07:17:28;;;;;;;4.57;4.30;;;;;;;34.86;43.96;99102.81;5106158;28;20430;-67
2022/08/06 07:20:01;;;;;;;4.07;3.97;;;;;;;34.98;43.74;99095.78;5106586;28;20206;-67
2022/08/06 07:22:29;;;;;;;4.55;3.72;;;;;;;35.12;41.07;99101.94;5110825;28;20221;-67
2022/08/06 07:24:59;;;;;;;4.85;4.50;;;;;;;35.01;41.18;99082.03;5110406;28;20207;-68
2022/08/06 07:27:30;;;;;;;4.60;4.38;;;;;;;34.82;41.39;99109.56;5110002;28;20574;-67
2022/08/06 07:29:59;;;;;;;4.47;4.28;;;;;;;34.83;41.14;99100.56;5111116;28;20198;-67
2022/08/06 07:32:27;;;;;;;4.68;4.10;;;;;;;34.97;41.63;99096.81;5111711;28;20675;-68
2022/08/06 07:34:54;;;;;;;4.70;4.40;;;;;;;35.17;40.71;99097.59;5109109;28;20198;-67
2022/08/06 07:37:25;;;;;;;4.22;4.03;;;;;;;35.37;41.65;99091.34;5111489;28;20230;-68
2022/08/06 07:39:54;;;;;;;4.75;4.45;;;;;;;35.47;42.29;99091.72;5111057;28;20205;-68
2022/08/06 07:42:24;;;;;;;4.53;4.28;;;;;;;35.36;41.48;99095.03;5111374;28;20590;-68
2022/08/06 07:44:54;;;;;;;4.82;4.63;;;;;;;35.40;41.32;99098.94;5108255;28;20701;-68
2022/08/06 07:47:25;;;;;;;4.95;4.75;;;;;;;35.40;40.94;99090.94;5111528;28;20198;-67
2022/08/06 07:49:56;;;;;;;4.85;4.30;;;;;;;35.55;41.35;99094.13;5111283;28;20199;-68
2022/08/06 07:52:25;;;;;;;4.40;4.20;;;;;;;35.49;40.48;99097.63;5111528;28;20686;-67
2022/08/06 07:54:53;;;;;;;4.75;4.50;;;;;;;35.77;39.37;99092.78;5111059;28;20244;-67
2022/08/06 07:57:20;;;;;;;5.30;4.90;;;;;;;35.96;41.36;99091.84;5110937;28;20205;-67
2022/08/06 07:59:48;;;;;;;4.68;4.38;;;;;;;35.96;39.41;99091.03;5111079;28;20202;-67
2022/08/06 08:02:16;;;;;;;4.85;4.53;;;;;;;36.22;40.05;99088.19;5112805;28;20225;-67
2022/08/06 08:07:31;;;;;;;9.55;5.05;;;;;;;36.25;39.47;99083.19;5117923;28;20331;-68
2022/08/06 08:10:00;;;;;;;5.07;4.88;;;;;;;36.39;40.45;99085.75;5117816;27;20199;-68
2022/08/06 08:12:28;;;;;;;4.43;4.10;;;;;;;36.27;38.95;99088.34;5117976;27;20199;-67
2022/08/06 08:14:54;;;;;;;4.55;4.35;;;;;;;36.14;38.44;99083.94;5117806;27;20199;-67
2022/08/06 08:17:21;;;;;;;5.38;4.30;;;;;;;36.32;40.87;99086.63;5117688;27;20205;-67
2022/08/06 08:19:48;;;;;;;5.38;5.07;;;;;;;36.68;39.19;99079.75;5117916;27;20619;-67
2022/08/06 08:22:18;;;;;;;6.85;5.15;;;;;;;36.88;39.92;99084.88;5117483;27;20222;-67
2022/08/06 08:24:47;;;;;;;6.95;4.88;;;;;;;36.99;39.37;99076.94;5117754;27;20199;-68
2022/08/06 08:27:15;;;;;;;8.25;5.18;;;;;;;36.75;37.42;99070.63;5116615;27;20336;-67
2022/08/06 08:29:43;;;;;;;4.07;3.92;;;;;;;36.70;38.55;99075.00;5117545;27;20207;-68
2022/08/06 08:32:10;;;;;;;4.00;3.78;;;;;;;36.80;40.17;99072.66;5116594;27;20681;-68
2022/08/06 08:34:37;;;;;;;4.53;4.32;;;;;;;36.90;37.50;99077.47;5117653;27;20209;-67
2022/08/06 08:37:04;;;;;;;4.60;4.30;;;;;;;36.85;41.18;99070.09;5117343;27;20271;-68
2022/08/06 08:39:31;;;;;;;4.30;4.10;;;;;;;36.80;36.87;99073.44;5117571;27;20199;-68
2022/08/06 08:42:06;;;;;;;4.90;4.70;;;;;;;36.81;39.24;99066.25;5117404;27;20214;-67
2022/08/06 08:44:35;;;;;;;4.88;4.28;;;;;;;36.91;39.54;99053.19;5117505;27;20202;-67
2022/08/06 08:47:03;;;;;;;11.75;4.78;;;;;;;37.01;38.33;99061.50;5117451;27;20194;-68
2022/08/06 08:49:36;;;;;;;4.28;4.10;;;;;;;37.11;38.55;99053.78;5116876;27;20199;-67
2022/08/06 08:52:04;;;;;;;3.90;3.70;;;;;;;37.28;36.81;99057.47;5117453;27;20239;-68
2022/08/06 08:54:36;;;;;;;3.40;3.25;;;;;;;37.31;34.07;99051.66;5117239;27;20194;-67
2022/08/06 08:57:05;;;;;;;3.17;3.08;;;;;;;37.37;35.45;99051.78;5117334;27;20198;-67
2022/08/06 08:59:32;;;;;;;4.28;4.07;;;;;;;37.40;36.55;99037.97;5117355;27;20217;-67
2022/08/06 09:01:59;;;;;;;4.32;4.07;;;;;;;37.35;34.05;99052.81;5117266;27;20594;-67
2022/08/06 09:04:27;;;;;;;4.18;3.80;;;;;;;37.44;33.41;99055.19;5117376;27;20198;-67
2022/08/06 09:06:54;;;;;;;4.20;3.90;;;;;;;37.46;36.48;99026.38;5117288;27;20273;-67
2022/08/06 09:09:21;;;;;;;3.80;3.60;;;;;;;37.49;35.09;99036.63;5117479;27;20198;-67
2022/08/06 09:11:49;;;;;;;3.80;3.63;;;;;;;37.73;34.96;99032.97;5117234;27;20218;-67
2022/08/06 09:14:17;;;;;;;4.18;3.90;;;;;;;37.68;32.74;99038.19;5114825;27;20199;-67
2022/08/06 09:16:44;;;;;;;3.88;3.72;;;;;;;37.57;32.44;99041.66;5112874;28;20204;-67
2022/08/06 09:19:11;;;;;;;3.70;3.45;;;;;;;37.47;33.80;99042.22;5113975;28;20199;-67
2022/08/06 09:21:38;;;;;;;3.95;3.72;;;;;;;37.72;32.58;99031.34;5113770;28;20586;-67
2022/08/06 09:24:06;;;;;;;3.67;3.47;;;;;;;37.77;34.33;99028.81;5113609;28;20201;-67
2022/08/06 09:26:33;;;;;;;3.10;3.00;;;;;;;37.58;32.70;99022.69;5112506;28;20206;-67
2022/08/06 09:29:00;;;;;;;3.42;3.33;;;;;;;37.48;33.25;99021.63;5113085;28;20263;-67
2022/08/06 09:31:29;;;;;;;3.63;3.33;;;;;;;37.26;33.19;99023.97;5113591;28;20217;-67
2022/08/06 09:33:58;;;;;;;3.22;3.13;;;;;;;36.98;34.66;99016.50;5113672;28;20209;-67
2022/08/06 09:36:26;;;;;;;3.10;3.00;;;;;;;37.00;34.06;99022.44;5113835;28;20199;-67
2022/08/06 09:38:56;;;;;;;3.40;3.30;;;;;;;37.18;36.31;99021.63;5113572;28;20195;-67
2022/08/06 09:41:25;;;;;;;3.65;3.40;;;;;;;36.68;34.15;99002.28;5113429;28;20724;-67
2022/08/06 09:43:54;;;;;;;3.70;3.50;;;;;;;36.72;35.38;99012.31;5113563;28;20199;-67
2022/08/06 09:46:39;;;;;;;4.00;3.15;;;;;;;36.69;34.68;99011.94;5113554;28;20206;-67
2022/08/06 09:49:07;;;;;;;3.50;3.38;;;;;;;36.67;34.26;99014.84;5109456;28;20186;-67
2022/08/06 09:51:35;;;;;;;3.42;3.22;;;;;;;36.86;35.35;99007.63;5113339;28;20194;-68
2022/08/06 09:54:05;;;;;;;3.22;3.10;;;;;;;36.91;34.33;99015.75;5113288;28;20690;-67
2022/08/06 09:56:32;;;;;;;3.20;3.08;;;;;;;36.69;35.19;99006.59;5113250;28;20201;-67
2022/08/06 09:59:00;;;;;;;3.10;3.00;;;;;;;36.90;35.73;99008.78;5109286;28;20199;-67
2022/08/06 10:01:28;;;;;;;3.63;3.15;;;;;;;36.90;34.65;99014.13;5113314;28;20309;-68
2022/08/06 10:03:58;;;;;;;3.45;3.33;;;;;;;36.65;35.24;99018.75;5113016;28;20194;-67
2022/08/06 10:06:25;;;;;;;3.38;3.28;;;;;;;36.74;34.61;99006.72;5113073;28;20218;-67
2022/08/06 10:09:07;;;;;;;4.75;3.38;;;;;;;36.64;33.34;99004.56;5112995;27;20278;-67
2022/08/06 10:11:36;;;;;;;3.55;3.35;;;;;;;36.29;34.31;98998.16;5113075;28;20277;-67
2022/08/06 10:14:03;;;;;;;5.35;3.75;;;;;;;36.20;34.99;98986.94;5112984;28;20582;-66
2022/08/06 10:16:30;;;;;;;3.28;3.08;;;;;;;36.35;36.22;98991.94;5113044;28;20195;-68
2022/08/06 10:18:59;;;;;;;3.60;3.50;;;;;;;36.38;35.10;98985.34;5112637;28;20625;-67
2022/08/06 10:21:29;;;;;;;3.70;3.40;;;;;;;36.54;36.35;98982.13;5112080;28;20194;-67
2022/08/06 10:24:00;;;;;;;3.50;3.40;;;;;;;36.58;35.16;98984.09;5111886;28;20591;-67
2022/08/06 10:26:31;;;;;;;3.47;3.28;;;;;;;36.83;37.44;98987.50;5110531;28;20194;-67
2022/08/06 10:29:03;;;;;;;3.92;3.58;;;;;;;37.12;36.48;98980.56;5112583;28;20215;-67
2022/08/06 10:31:30;;;;;;;3.50;3.30;;;;;;;36.90;34.61;98976.72;5112494;28;20194;-67
2022/08/06 10:34:01;;;;;;;6.13;3.35;;;;;;;37.08;34.95;98979.38;5112674;28;20202;-69
2022/08/06 10:36:35;;;;;;;3.53;3.40;;;;;;;36.78;35.15;98973.19;5112687;28;20194;-68
2022/08/06 10:39:02;;;;;;;3.42;3.33;;;;;;;36.75;35.25;98973.63;5112394;28;20251;-67
2022/08/06 10:41:30;;;;;;;3.55;3.40;;;;;;;36.70;35.17;98970.81;5112364;28;20199;-67
2022/08/06 10:43:58;;;;;;;4.15;3.95;;;;;;;36.70;35.67;98968.16;5112340;28;20587;-67
2022/08/06 10:46:25;;;;;;;3.55;3.45;;;;;;;36.79;35.13;98970.28;5112355;28;20199;-68
2022/08/06 10:48:53;;;;;;;3.65;3.38;;;;;;;36.84;34.54;98966.94;5112219;28;20199;-68
2022/08/06 10:51:23;;;;;;;6.75;3.97;;;;;;;36.70;34.26;98960.13;5112248;28;20713;-67
2022/08/06 10:53:49;;;;;;;3.50;3.40;;;;;;;36.59;33.55;98963.56;5112061;28;20198;-67
2022/08/06 10:56:18;;;;;;;4.03;3.67;;;;;;;36.19;33.92;98968.50;5111408;28;20282;-67
2022/08/06 10:58:45;;;;;;;3.67;3.50;;;;;;;35.77;35.34;98959.41;5112358;27;20202;-67
2022/08/06 11:01:22;;;;;;;3.88;3.67;;;;;;;35.75;34.91;98951.63;5111958;28;20198;-67
2022/08/06 11:04:03;;;;;;;3.08;2.97;;;;;;;35.81;35.72;98949.94;5112194;28;20218;-67
2022/08/06 11:06:47;;;;;;;3.72;3.58;;;;;;;36.17;35.93;98944.69;5111621;28;20222;-67
2022/08/06 11:09:30;;;;;;;4.13;3.92;;;;;;;36.47;35.83;98949.28;5111889;28;20210;-67
2022/08/06 11:12:19;;;;;;;3.55;3.33;;;;;;;36.55;34.50;98941.00;5111703;28;20194;-67
2022/08/06 11:14:46;;;;;;;3.97;3.78;;;;;;;36.67;34.30;98939.22;5111946;28;20282;-67
2022/08/06 11:17:13;;;;;;;3.67;3.47;;;;;;;36.90;34.85;98925.94;5111289;28;20701;-67
2022/08/06 11:19:42;;;;;;;4.50;4.20;;;;;;;36.97;34.50;98929.34;5111035;28;20202;-67
2022/08/06 11:22:34;;;;;;;3.38;3.28;;;;;;;36.44;32.19;98920.38;5110743;28;20218;-67
2022/08/06 11:25:02;;;;;;;3.53;3.42;;;;;;;36.39;33.05;98938.91;5110764;28;20203;-66
2022/08/06 11:27:49;;;;;;;4.18;3.97;;;;;;;36.45;33.71;98941.50;5111705;28;20247;-67
2022/08/06 11:30:17;;;;;;;3.30;3.20;;;;;;;36.63;33.18;98946.03;5111360;28;20289;-67
2022/08/06 11:32:44;;;;;;;3.40;3.28;;;;;;;36.69;32.78;98945.97;5111565;28;20199;-67
2022/08/06 11:35:46;;;;;;;4.63;3.70;;;;;;;36.49;33.43;98932.00;5111363;28;20217;-67
2022/08/06 11:38:15;;;;;;;3.40;3.30;;;;;;;36.58;32.97;98940.53;5106570;28;20255;-67
2022/08/06 11:40:56;;;;;;;3.58;3.40;;;;;;;36.57;34.55;98933.59;5111729;28;20198;-67
2022/08/06 11:43:49;;;;;;;3.97;3.88;;;;;;;36.72;34.98;98928.66;5110591;28;20222;-67
2022/08/06 11:46:24;;;;;;;4.03;3.70;;;;;;;36.86;35.28;98926.63;5109927;28;20199;-66
2022/08/06 11:49:19;;;;;;;3.40;3.30;;;;;;;36.96;34.36;98921.56;5111360;28;20194;-67
2022/08/06 11:51:47;;;;;;;3.72;3.58;;;;;;;37.07;32.93;98929.63;5105639;28;20248;-67